Terminal Aerodrome Forecast
Issued by NWS

Home | Current Version | Previous Version | Text Only | Print | Product List | Glossary On
Versions: 1 2 3 4 5 6 7 8 9 10 11 12 13 14
000
FTUS42 KTBW 012300
TAFLAL
TAF
KLAL 012331Z 0200/0224 11006KT P6SM VCSH SCT050 SCT120 BKN250
     FM020300 00000KT P6SM FEW030 SCT250
     FM021600 10005KT P6SM SCT035 BKN250
     FM021800 11006KT P6SM VCTS SCT050CB BKN250
     FM022100 08006KT P6SM VCTS BKN050CB
      AMD NOT SKED 0203/0212=

USA.gov is the U.S. government's official web portal to all federal, state and local government web resources and services.